createdAt,value
2022-11-16T00:01:13.202Z,38.25
2022-11-16T00:03:40.788Z,38.22
2022-11-16T00:06:09.204Z,37.85
2022-11-16T00:08:38.955Z,37.40
2022-11-16T00:11:15.429Z,34.92
2022-11-16T00:13:43.804Z,36.20
2022-11-16T00:16:17.876Z,30.67
2022-11-16T00:18:45.160Z,32.95
2022-11-16T00:21:11.940Z,34.25
2022-11-16T00:23:39.944Z,33.97
2022-11-16T00:26:08.610Z,32.03
2022-11-16T00:28:36.557Z,35.33
2022-11-16T00:31:07.123Z,37.88
2022-11-16T00:33:34.937Z,38.55
2022-11-16T00:36:03.941Z,33.63
2022-11-16T00:38:31.878Z,34.15
2022-11-16T00:40:59.253Z,33.95
2022-11-16T00:43:26.769Z,37.17
2022-11-16T00:45:53.998Z,31.85
2022-11-16T00:48:21.688Z,35.45
2022-11-16T00:50:48.775Z,31.60
2022-11-16T00:53:18.356Z,33.80
2022-11-16T00:55:46.628Z,30.92
2022-11-16T01:00:45.165Z,31.10
2022-11-16T01:03:12.158Z,33.55
2022-11-16T01:05:39.297Z,32.80
2022-11-16T01:08:07.813Z,34.50
2022-11-16T01:10:39.789Z,33.03
2022-11-16T01:13:07.236Z,34.40
2022-11-16T01:15:35.193Z,31.30
2022-11-16T01:18:02.072Z,31.38
2022-11-16T01:20:29.946Z,29.95
2022-11-16T01:22:56.974Z,32.15
2022-11-16T01:25:23.972Z,32.08
2022-11-16T01:27:51.070Z,35.58
2022-11-16T01:30:25.131Z,36.55
2022-11-16T01:33:05.407Z,38.50
2022-11-16T01:35:32.339Z,41.45
2022-11-16T01:37:59.635Z,42.22
2022-11-16T01:40:28.173Z,40.72
2022-11-16T01:42:54.988Z,48.47
2022-11-16T01:45:35.421Z,56.72
2022-11-16T01:48:05.491Z,71.00
2022-11-16T01:50:34.946Z,77.18
2022-11-16T01:53:06.021Z,72.95
2022-11-16T01:55:43.425Z,70.53
2022-11-16T01:58:21.312Z,82.00
2022-11-16T02:00:53.218Z,80.22
2022-11-16T02:03:29.861Z,81.97
2022-11-16T02:06:27.480Z,75.13
2022-11-16T02:09:51.933Z,78.97
2022-11-16T02:12:38.213Z,71.90
2022-11-16T02:15:31.881Z,80.18
2022-11-16T02:18:57.246Z,86.05
2022-11-16T02:21:37.180Z,87.18
2022-11-16T02:24:19.215Z,91.17
2022-11-16T02:27:07.704Z,87.72
2022-11-16T02:29:37.416Z,85.75
2022-11-16T02:34:58.309Z,90.53
2022-11-16T02:37:28.725Z,100.82
2022-11-16T02:39:59.687Z,91.95
2022-11-16T02:42:34.559Z,92.43
2022-11-16T02:45:06.939Z,86.07
2022-11-16T02:47:35.799Z,75.07
2022-11-16T02:50:14.309Z,76.40
2022-11-16T02:52:41.337Z,81.10
2022-11-16T02:55:10.538Z,79.47
2022-11-16T02:57:46.488Z,78.82
2022-11-16T03:00:26.661Z,70.88
2022-11-16T03:03:19.015Z,71.47
2022-11-16T03:05:58.358Z,68.40
2022-11-16T03:08:42.207Z,67.45
2022-11-16T03:11:30.402Z,59.80
2022-11-16T03:14:05.819Z,59.78
2022-11-16T03:16:40.814Z,64.97
2022-11-16T03:19:13.834Z,60.17
2022-11-16T03:22:05.536Z,61.17
2022-11-16T03:24:33.534Z,63.25
2022-11-16T03:27:15.537Z,66.03
2022-11-16T03:29:42.441Z,66.32
2022-11-16T03:32:33.892Z,67.07
2022-11-16T03:35:19.947Z,57.35
2022-11-16T03:37:50.693Z,63.33
2022-11-16T03:40:19.435Z,63.58
2022-11-16T03:42:49.778Z,54.92
2022-11-16T03:45:19.170Z,56.78
2022-11-16T03:47:46.334Z,53.80
2022-11-16T03:50:14.080Z,57.42
2022-11-16T03:52:42.120Z,53.60
2022-11-16T03:55:09.670Z,53.38
2022-11-16T03:57:41.389Z,52.85
2022-11-16T04:00:09.456Z,55.42
2022-11-16T04:02:42.972Z,56.28
2022-11-16T04:05:34.302Z,54.95
2022-11-16T04:08:19.706Z,61.28
2022-11-16T04:11:05.337Z,52.90
2022-11-16T04:13:53.955Z,54.42
2022-11-16T04:16:39.574Z,52.50
2022-11-16T04:19:29.859Z,49.90
2022-11-16T04:22:22.834Z,57.88
2022-11-16T04:24:55.002Z,52.83
2022-11-16T04:27:47.060Z,54.17
2022-11-16T04:30:14.571Z,49.83
2022-11-16T04:33:01.003Z,47.80
2022-11-16T04:35:48.131Z,54.30
2022-11-16T04:38:15.170Z,47.63
2022-11-16T04:40:42.107Z,53.70
2022-11-16T04:43:11.485Z,47.53
2022-11-16T04:45:59.431Z,49.53
2022-11-16T04:48:33.816Z,51.42
2022-11-16T04:51:02.520Z,52.40
2022-11-16T04:53:29.899Z,49.28
2022-11-16T04:56:07.266Z,51.22
2022-11-16T04:58:34.941Z,47.55
2022-11-16T05:01:02.513Z,49.85
2022-11-16T05:03:29.422Z,53.53
2022-11-16T05:05:56.291Z,50.42
2022-11-16T05:08:23.316Z,47.60
2022-11-16T05:10:52.359Z,53.53
2022-11-16T05:13:19.951Z,50.45
2022-11-16T05:15:49.321Z,48.72
2022-11-16T05:18:16.604Z,47.50
2022-11-16T05:21:01.890Z,51.25
2022-11-16T05:23:56.200Z,44.50
2022-11-16T05:26:25.891Z,48.33
2022-11-16T05:28:54.271Z,55.10
2022-11-16T05:31:21.176Z,53.90
2022-11-16T05:33:48.588Z,49.83
2022-11-16T05:36:16.270Z,57.25
2022-11-16T05:38:43.238Z,52.95
2022-11-16T05:41:10.358Z,46.85
2022-11-16T05:43:37.879Z,46.53
2022-11-16T05:46:13.702Z,45.75
2022-11-16T05:48:40.703Z,43.60
2022-11-16T05:51:08.674Z,48.83
2022-11-16T05:53:35.630Z,45.15
2022-11-16T05:56:03.037Z,47.90
2022-11-16T05:58:33.282Z,51.28
2022-11-16T06:01:00.895Z,51.88
2022-11-16T06:03:31.748Z,49.53
2022-11-16T06:05:59.760Z,49.30
2022-11-16T06:08:28.333Z,52.00
2022-11-16T06:11:00.897Z,47.63
2022-11-16T06:13:27.845Z,45.85
2022-11-16T06:15:57.598Z,50.15
2022-11-16T06:18:24.783Z,44.03
2022-11-16T06:20:51.780Z,51.58
2022-11-16T06:23:21.453Z,50.33
2022-11-16T06:25:53.957Z,48.80
2022-11-16T06:28:21.846Z,51.08
2022-11-16T06:30:49.337Z,52.05
2022-11-16T06:33:17.120Z,50.30
2022-11-16T06:35:44.464Z,52.15
2022-11-16T06:40:52.540Z,47.30
2022-11-16T06:43:21.421Z,42.97
2022-11-16T06:45:53.917Z,47.78
2022-11-16T06:48:20.978Z,47.00
2022-11-16T06:50:49.913Z,43.78
2022-11-16T06:53:19.492Z,45.28
2022-11-16T06:55:48.287Z,41.45
2022-11-16T06:58:15.802Z,46.03
2022-11-16T07:00:44.088Z,50.67
2022-11-16T07:03:11.776Z,55.88
2022-11-16T07:05:41.290Z,50.28
2022-11-16T07:08:12.775Z,40.90
2022-11-16T07:10:40.125Z,45.97
2022-11-16T07:13:07.832Z,51.78
2022-11-16T07:15:37.835Z,41.55
2022-11-16T07:18:07.555Z,45.83
2022-11-16T07:20:38.776Z,56.00
2022-11-16T07:23:09.077Z,47.40
2022-11-16T07:25:40.352Z,59.15
2022-11-16T07:28:07.931Z,52.20
2022-11-16T07:30:35.729Z,50.40
2022-11-16T07:33:17.271Z,43.42
2022-11-16T07:36:13.139Z,42.20
2022-11-16T07:38:40.737Z,47.63
2022-11-16T07:41:11.827Z,39.08
2022-11-16T07:43:52.619Z,39.25
2022-11-16T07:49:18.958Z,44.50
2022-11-16T07:51:55.162Z,50.78
2022-11-16T07:54:40.953Z,43.40
2022-11-16T07:57:08.499Z,44.83
2022-11-16T07:59:35.522Z,39.95
2022-11-16T08:02:04.298Z,39.38
2022-11-16T08:04:32.079Z,51.42
2022-11-16T08:06:59.642Z,43.25
2022-11-16T08:09:31.118Z,43.92
2022-11-16T08:11:58.404Z,43.25
2022-11-16T08:14:25.236Z,49.30
2022-11-16T08:16:55.335Z,47.50
2022-11-16T08:19:29.475Z,47.17
2022-11-16T08:21:58.174Z,55.10
2022-11-16T08:24:28.557Z,60.80
2022-11-16T08:26:57.336Z,44.33
2022-11-16T08:29:24.277Z,51.70
2022-11-16T08:31:51.918Z,42.30
2022-11-16T08:34:21.482Z,44.22
2022-11-16T08:36:56.186Z,49.38
2022-11-16T08:39:29.454Z,44.70
2022-11-16T08:41:56.636Z,44.08
2022-11-16T08:44:23.693Z,56.60
2022-11-16T08:46:53.378Z,53.10
2022-11-16T08:49:35.286Z,45.88
2022-11-16T08:52:02.327Z,57.70
2022-11-16T08:54:30.696Z,49.90
2022-11-16T08:56:57.871Z,52.42
2022-11-16T08:59:24.903Z,52.42
2022-11-16T09:01:55.517Z,47.03
2022-11-16T09:04:23.523Z,43.55
2022-11-16T09:06:53.063Z,46.90
2022-11-16T09:09:20.002Z,47.70
2022-11-16T09:11:46.918Z,47.38
2022-11-16T09:14:14.151Z,55.85
2022-11-16T09:16:41.067Z,50.38
2022-11-16T09:19:22.119Z,50.83
2022-11-16T09:21:57.247Z,44.20
2022-11-16T09:24:24.123Z,44.85
2022-11-16T09:26:51.101Z,46.08
2022-11-16T09:29:17.947Z,53.65
2022-11-16T09:31:45.413Z,45.97
2022-11-16T09:34:12.326Z,50.65
2022-11-16T09:36:39.225Z,65.55
2022-11-16T09:42:02.753Z,51.58
2022-11-16T09:45:17.132Z,49.03
2022-11-16T09:47:51.322Z,52.13
2022-11-16T09:50:43.601Z,55.50
2022-11-16T09:53:46.523Z,59.42
2022-11-16T09:56:27.220Z,48.15
2022-11-16T09:59:04.300Z,55.45
2022-11-16T10:01:42.317Z,46.35
2022-11-16T10:04:12.901Z,63.53
2022-11-16T10:07:17.974Z,57.95
2022-11-16T10:09:46.797Z,57.95
2022-11-16T10:12:30.691Z,60.88
2022-11-16T10:15:07.418Z,59.30
2022-11-16T10:17:52.930Z,62.63
2022-11-16T10:20:30.413Z,62.92
2022-11-16T10:23:28.719Z,65.38
2022-11-16T10:26:22.359Z,59.90
2022-11-16T10:29:31.700Z,53.97
2022-11-16T10:32:17.413Z,56.42
2022-11-16T10:34:50.436Z,63.92
2022-11-16T10:37:18.018Z,66.13
2022-11-16T10:39:48.811Z,72.95
2022-11-16T10:42:35.706Z,56.25
2022-11-16T10:45:08.305Z,55.97
2022-11-16T10:47:45.210Z,55.42
2022-11-16T10:50:39.520Z,69.85
2022-11-16T10:53:06.697Z,54.95
2022-11-16T10:55:33.484Z,55.40
2022-11-16T10:58:05.829Z,59.72
2022-11-16T11:00:38.717Z,59.60
2022-11-16T11:03:06.241Z,53.15
2022-11-16T11:05:35.279Z,56.83
2022-11-16T11:08:10.275Z,69.28
2022-11-16T11:10:40.003Z,64.40
2022-11-16T11:13:27.370Z,57.35
2022-11-16T11:16:15.203Z,54.75
2022-11-16T11:18:42.630Z,60.20
2022-11-16T11:21:21.038Z,59.42
2022-11-16T11:24:10.569Z,54.22
2022-11-16T11:26:49.507Z,50.97
2022-11-16T11:29:20.166Z,56.83
2022-11-16T11:31:54.419Z,49.85
2022-11-16T11:34:30.816Z,53.05
2022-11-16T11:37:03.054Z,48.95
2022-11-16T11:39:37.390Z,53.47
2022-11-16T11:42:13.442Z,51.42
2022-11-16T11:45:01.973Z,50.83
2022-11-16T11:50:48.507Z,54.05
2022-11-16T11:53:34.385Z,56.47
2022-11-16T11:56:05.113Z,69.07
2022-11-16T11:58:38.724Z,69.55
2022-11-16T12:01:38.439Z,78.07
2022-11-16T12:04:08.154Z,63.83
2022-11-16T12:06:59.825Z,65.68
2022-11-16T12:09:51.156Z,57.20
2022-11-16T12:12:39.694Z,53.50
2022-11-16T12:15:21.779Z,56.05
2022-11-16T12:17:55.756Z,56.55
2022-11-16T12:20:29.823Z,49.05
2022-11-16T12:23:17.370Z,56.42
2022-11-16T12:26:14.205Z,49.60
2022-11-16T12:29:01.485Z,47.42
2022-11-16T12:31:37.028Z,52.58
2022-11-16T12:34:28.329Z,45.40
2022-11-16T12:37:11.071Z,44.45
2022-11-16T12:40:04.971Z,50.38
2022-11-16T12:42:59.687Z,49.08
2022-11-16T12:45:45.605Z,57.20
2022-11-16T12:48:55.774Z,59.13
2022-11-16T12:51:41.384Z,55.03
2022-11-16T12:55:03.944Z,57.72
2022-11-16T12:57:34.245Z,41.65
2022-11-16T13:00:13.062Z,41.95
2022-11-16T13:02:52.065Z,35.20
2022-11-16T13:05:28.133Z,35.55
2022-11-16T13:08:02.374Z,32.47
2022-11-16T13:10:34.496Z,34.30
2022-11-16T13:15:53.344Z,45.97
2022-11-16T13:18:22.253Z,55.30
2022-11-16T13:20:53.285Z,44.72
2022-11-16T13:23:33.637Z,47.13
2022-11-16T13:26:10.608Z,42.38
2022-11-16T13:28:40.575Z,46.10
2022-11-16T13:34:03.448Z,40.80
2022-11-16T13:36:37.050Z,44.22
2022-11-16T13:39:06.362Z,42.80
2022-11-16T13:41:38.813Z,43.28
2022-11-16T13:44:28.071Z,41.38
2022-11-16T13:47:04.500Z,41.67
2022-11-16T13:49:41.814Z,44.97
2022-11-16T13:52:23.283Z,41.33
2022-11-16T13:54:54.976Z,41.65
2022-11-16T13:57:27.101Z,48.58
2022-11-16T14:00:03.031Z,46.03
2022-11-16T14:02:37.261Z,46.55
2022-11-16T14:05:13.205Z,46.95
2022-11-16T14:07:47.332Z,46.70
2022-11-16T14:10:36.135Z,47.08
2022-11-16T14:13:04.623Z,50.70
2022-11-16T14:15:34.113Z,38.20
2022-11-16T14:18:04.063Z,44.05
2022-11-16T14:21:25.743Z,45.75
2022-11-16T14:24:31.463Z,46.00
2022-11-16T14:27:30.475Z,42.22
2022-11-16T14:30:16.214Z,41.67
2022-11-16T14:32:55.280Z,50.65
2022-11-16T14:35:39.512Z,54.37
2022-11-16T14:38:35.660Z,34.80
2022-11-16T14:41:05.694Z,36.38
2022-11-16T14:48:50.375Z,38.28
2022-11-16T14:51:24.825Z,37.58
2022-11-16T14:54:00.064Z,39.92
2022-11-16T14:56:27.258Z,31.33
2022-11-16T14:58:59.509Z,28.55
2022-11-16T15:01:29.791Z,25.67
2022-11-16T15:04:04.534Z,25.88
2022-11-16T15:06:42.390Z,25.80
2022-11-16T15:09:19.922Z,27.80
2022-11-16T15:12:08.596Z,27.52
2022-11-16T15:14:41.849Z,28.42
2022-11-16T15:17:10.087Z,34.03
2022-11-16T15:19:36.940Z,35.58
2022-11-16T15:22:04.897Z,33.08
2022-11-16T15:24:34.396Z,35.35
2022-11-16T15:27:30.144Z,30.55
2022-11-16T15:29:57.163Z,29.20
2022-11-16T15:32:24.027Z,31.70
2022-11-16T15:34:54.494Z,25.40
2022-11-16T15:37:31.177Z,26.38
2022-11-16T15:40:00.174Z,25.50
2022-11-16T15:42:31.513Z,28.38
2022-11-16T15:45:01.650Z,28.20
2022-11-16T15:49:55.556Z,30.40
2022-11-16T15:52:41.126Z,37.95
2022-11-16T15:55:21.322Z,36.22
2022-11-16T15:58:25.828Z,28.10
2022-11-16T16:00:54.727Z,23.20
2022-11-16T16:03:27.065Z,24.83
2022-11-16T16:05:55.035Z,20.88
2022-11-16T16:08:27.895Z,14.20
2022-11-16T16:11:07.050Z,14.50
2022-11-16T16:14:01.524Z,12.52
2022-11-16T16:16:37.960Z,11.52
2022-11-16T16:19:24.412Z,12.65
2022-11-16T16:21:51.890Z,11.80
2022-11-16T16:24:41.226Z,11.10
2022-11-16T16:27:19.425Z,13.25
2022-11-16T16:29:48.293Z,10.48
2022-11-16T16:32:26.382Z,11.10
2022-11-16T16:34:55.218Z,9.90
2022-11-16T16:37:22.837Z,10.20
2022-11-16T16:39:49.668Z,10.15
2022-11-16T16:42:18.058Z,11.70
2022-11-16T16:44:46.185Z,11.18
2022-11-16T16:47:14.053Z,11.93
2022-11-16T16:49:41.520Z,12.60
2022-11-16T16:52:10.814Z,12.13
2022-11-16T16:54:38.047Z,12.32
2022-11-16T16:57:04.905Z,13.23
2022-11-16T16:59:31.900Z,13.20
2022-11-16T17:01:59.505Z,13.75
2022-11-16T17:04:26.496Z,16.40
2022-11-16T17:06:54.575Z,15.02
2022-11-16T17:09:21.633Z,16.25
2022-11-16T17:11:48.660Z,15.90
2022-11-16T17:14:15.622Z,18.17
2022-11-16T17:16:42.508Z,17.05
2022-11-16T17:19:09.382Z,15.88
2022-11-16T17:21:36.182Z,15.68
2022-11-16T17:24:03.179Z,16.77
2022-11-16T17:26:30.178Z,17.48
2022-11-16T17:28:58.222Z,16.63
2022-11-16T17:31:26.449Z,17.55
2022-11-16T17:33:53.617Z,18.75
2022-11-16T17:36:20.874Z,23.15
2022-11-16T17:38:47.750Z,23.40
2022-11-16T17:41:15.808Z,20.77
2022-11-16T17:43:44.105Z,22.95
2022-11-16T17:46:13.622Z,23.60
2022-11-16T17:48:43.435Z,25.67
2022-11-16T17:51:15.973Z,22.90
2022-11-16T17:53:44.445Z,25.23
2022-11-16T17:56:17.066Z,24.05
2022-11-16T17:58:45.451Z,23.75
2022-11-16T18:01:13.922Z,21.17
2022-11-16T18:03:40.888Z,24.17
2022-11-16T18:06:16.130Z,23.65
2022-11-16T18:08:46.597Z,25.85
2022-11-16T18:11:17.953Z,24.83
2022-11-16T18:13:46.069Z,22.65
2022-11-16T18:16:17.937Z,26.65
2022-11-16T18:18:47.216Z,25.15
2022-11-16T18:21:20.321Z,21.58
2022-11-16T18:23:48.324Z,21.63
2022-11-16T18:26:21.366Z,23.40
2022-11-16T18:28:49.582Z,19.13
2022-11-16T18:31:20.164Z,23.02
2022-11-16T18:33:49.301Z,22.75
2022-11-16T18:36:17.237Z,21.80
2022-11-16T18:38:44.586Z,24.88
2022-11-16T18:41:11.450Z,25.85
2022-11-16T18:43:47.573Z,24.05
2022-11-16T18:46:14.758Z,21.23
2022-11-16T18:48:43.181Z,22.33
2022-11-16T18:51:11.532Z,22.55
2022-11-16T18:53:38.697Z,20.83
2022-11-16T18:56:06.414Z,24.33
2022-11-16T18:58:49.828Z,24.65
2022-11-16T19:01:19.048Z,27.88
2022-11-16T19:03:46.196Z,26.02
2022-11-16T19:06:14.975Z,28.90
2022-11-16T19:08:42.729Z,26.17
2022-11-16T19:11:14.957Z,25.00
2022-11-16T19:13:43.461Z,25.35
2022-11-16T19:16:12.757Z,21.92
2022-11-16T19:18:39.962Z,24.73
2022-11-16T19:21:12.786Z,22.67
2022-11-16T19:23:45.064Z,27.63
2022-11-16T19:26:13.833Z,26.80
2022-11-16T19:28:43.091Z,27.20
2022-11-16T19:31:12.086Z,23.55
2022-11-16T19:33:39.346Z,26.23
2022-11-16T19:36:10.685Z,25.20
2022-11-16T19:38:38.315Z,35.90
2022-11-16T19:41:06.596Z,33.72
2022-11-16T19:43:34.325Z,37.83
2022-11-16T19:46:06.200Z,29.08
2022-11-16T19:48:33.650Z,28.33
2022-11-16T19:51:08.689Z,25.73
2022-11-16T19:53:36.538Z,26.85
2022-11-16T19:56:04.746Z,26.00
2022-11-16T19:58:32.298Z,29.15
2022-11-16T20:01:07.681Z,31.35
2022-11-16T20:03:35.120Z,37.72
2022-11-16T20:06:07.372Z,38.05
2022-11-16T20:08:34.819Z,37.67
2022-11-16T20:11:01.682Z,39.20
2022-11-16T20:13:28.611Z,46.88
2022-11-16T20:15:55.490Z,48.53
2022-11-16T20:18:22.384Z,46.60
2022-11-16T20:20:49.219Z,49.65
2022-11-16T20:23:16.117Z,45.97
2022-11-16T20:25:42.947Z,48.60
2022-11-16T20:28:09.894Z,43.65
2022-11-16T20:30:37.967Z,48.78
2022-11-16T20:33:05.063Z,53.78
2022-11-16T20:35:33.420Z,47.78
2022-11-16T20:38:00.386Z,46.15
2022-11-16T20:40:27.215Z,66.57
2022-11-16T20:42:59.172Z,66.68
2022-11-16T20:45:27.174Z,60.13
2022-11-16T20:47:53.990Z,50.45
2022-11-16T20:50:20.859Z,53.80
2022-11-16T20:52:52.568Z,45.28
2022-11-16T20:55:19.749Z,50.78
2022-11-16T20:57:46.577Z,47.30
2022-11-16T21:00:14.184Z,43.08
2022-11-16T21:02:40.976Z,57.17
2022-11-16T21:05:08.208Z,70.30
2022-11-16T21:07:35.570Z,68.88
2022-11-16T21:10:20.884Z,48.58
2022-11-16T21:13:06.214Z,60.88
2022-11-16T21:15:33.232Z,57.50
2022-11-16T21:18:00.090Z,55.72
2022-11-16T21:20:28.387Z,49.05
2022-11-16T21:22:55.684Z,54.42
2022-11-16T21:25:22.727Z,62.72
2022-11-16T21:27:49.586Z,67.90
2022-11-16T21:30:16.820Z,62.13
2022-11-16T21:32:43.683Z,64.35
2022-11-16T21:35:10.537Z,66.57
2022-11-16T21:37:37.435Z,71.18
2022-11-16T21:40:04.565Z,74.70
2022-11-16T21:42:31.427Z,54.20
2022-11-16T21:44:58.287Z,52.03
2022-11-16T21:47:25.088Z,51.28
2022-11-16T21:50:16.846Z,52.25
2022-11-16T21:52:38.777Z,51.47
2022-11-16T21:55:05.810Z,66.35
2022-11-16T21:57:32.739Z,62.28
2022-11-16T22:00:01.275Z,56.72
2022-11-16T22:02:38.386Z,57.10
2022-11-16T22:05:24.465Z,62.42
2022-11-16T22:07:52.320Z,60.95
2022-11-16T22:10:19.296Z,67.57
2022-11-16T22:12:46.190Z,70.65
2022-11-16T22:15:14.180Z,57.35
2022-11-16T22:17:45.029Z,58.00
2022-11-16T22:20:12.755Z,60.65
2022-11-16T22:22:40.007Z,70.68
2022-11-16T22:25:07.384Z,68.20
2022-11-16T22:27:52.103Z,63.25
2022-11-16T22:30:21.594Z,61.97
2022-11-16T22:32:48.424Z,63.42
2022-11-16T22:35:15.323Z,76.57
2022-11-16T22:37:42.438Z,66.03
2022-11-16T22:40:14.966Z,66.65
2022-11-16T22:42:44.601Z,62.58
2022-11-16T22:45:12.238Z,67.45
2022-11-16T22:47:39.237Z,78.18
2022-11-16T22:50:06.454Z,67.57
2022-11-16T22:52:33.416Z,78.45
2022-11-16T22:55:00.280Z,62.13
2022-11-16T22:57:27.120Z,71.82
2022-11-16T22:59:54.105Z,91.38
2022-11-16T23:02:20.952Z,65.93
2022-11-16T23:04:47.766Z,67.22
2022-11-16T23:07:14.672Z,65.18
2022-11-16T23:09:41.566Z,56.38
2022-11-16T23:12:27.436Z,63.55
2022-11-16T23:15:12.992Z,61.25
2022-11-16T23:17:39.968Z,61.53
2022-11-16T23:20:25.995Z,65.05
2022-11-16T23:23:11.320Z,63.60
2022-11-16T23:25:56.689Z,69.20
2022-11-16T23:28:23.693Z,64.03
2022-11-16T23:30:50.551Z,72.80
2022-11-16T23:33:17.485Z,69.95
2022-11-16T23:35:44.309Z,74.25
2022-11-16T23:38:11.154Z,65.07
2022-11-16T23:40:39.695Z,66.25
2022-11-16T23:43:28.592Z,66.22
2022-11-16T23:45:55.568Z,64.43
2022-11-16T23:48:22.398Z,66.00
2022-11-16T23:50:49.310Z,79.22
2022-11-16T23:53:16.212Z,78.88
2022-11-16T23:55:43.170Z,74.28
2022-11-16T23:58:14.445Z,75.88
